メインページ
METAR-TAF:

METAR-TAF

空港 :

ラバト=サレ空港

ラバト, モロッコ

緯度: 34-03N, 経度: 006-46W, 海抜: 84m

現時点の気象観測

当レポートは16分前の06:00(UTC)に作成
西/南西の風 4kt、南西から西/北西の間で変化する
気温 9°C
湿度 93%
気圧 1018 hPa
視程: 8000m
高度1600ftの雲は散在している
高度7000ftの雲は散在している

METAR: GMME 200600Z 24004KT 230V300 8000 SCT016 SCT070 09/08 Q1018 NOSIG

時間: 07:16 (06:16 UTC)

予報

当レポートは1時間16分前の05:00(UTC)に作成
予報は20日の 06時(UTC)から 21日の 12時(UTC)まで有効
北/北西の風 12kt
視程: 8000m
高度1300ftの雲は散在している
高度7000ftの千切れ雲あり
20日の 20時(UTC)から 20日の 22時(UTC)まで徐々に
の風 6kt

TAF: GMME 200500Z 2006/2112 34012KT 8000 SCT013 BKN070 BECMG 2020/2022 18006KT

4,000以上の空港の気象観測と天気予報(METAR報とTAF報)

利用可能な観測所は地図上に黄色い丸と赤い丸で示す。

丸の上にカーソルを重ねると観測所名を参照できる。

次にクリックすると気象観測と天気予報を参照できる。

マップの切り替え:黒色「×」印の緑ボタンをクリックして拡大、「-」印の緑ボタンをクリックして縮小、緑色の三角印をクリックして隣りの地図に切り替え


METAR-TAF: